Time;durP1;ratioP1;P1;durP2;ratioP2;P2;SDS_P1;SDS_P2;PMS_P1;PMS_P2;Temp;Humidity;BMP_temperature;BMP_pressure;BME280_temperature;BME280_humidity;BME280_pressure;Samples;Min_cycle;Max_cycle;Signal;HPM_P1;HPM_P2
2022/08/09 00:01:28;;;;;;;0.47;0.47;;;19.90;92.50;;;;;;5045675;28;20516;-59
2022/08/09 00:04:20;;;;;;;0.45;0.45;;;19.90;92.60;;;;;;5012785;28;20455;-59
2022/08/09 00:07:03;;;;;;;0.47;0.47;;;19.80;92.60;;;;;;5027821;28;20474;-59
2022/08/09 00:09:36;;;;;;;0.43;0.43;;;19.80;92.70;;;;;;5032203;28;20518;-59
2022/08/09 00:12:03;;;;;;;0.50;0.50;;;19.70;92.70;;;;;;5022359;28;21017;-60
2022/08/09 00:14:30;;;;;;;0.40;0.40;;;19.60;92.80;;;;;;5059939;28;20854;-59
2022/08/09 00:17:04;;;;;;;0.85;0.45;;;19.60;92.90;;;;;;5013480;28;20429;-59
2022/08/09 00:19:32;;;;;;;0.50;0.50;;;19.60;92.90;;;;;;5019838;28;20481;-59
2022/08/09 00:22:00;;;;;;;0.60;0.60;;;19.50;93.00;;;;;;5064436;28;20425;-59
2022/08/09 00:24:30;;;;;;;0.30;0.30;;;19.50;93.00;;;;;;5032432;28;20434;-59
2022/08/09 00:26:58;;;;;;;0.40;0.40;;;19.50;93.10;;;;;;5033018;28;20978;-59
2022/08/09 00:29:27;;;;;;;0.60;0.60;;;19.40;93.10;;;;;;5018826;28;20803;-59
2022/08/09 00:32:14;;;;;;;0.50;0.50;;;19.40;93.10;;;;;;5011961;28;20899;-59
2022/08/09 00:34:53;;;;;;;0.40;0.40;;;19.40;93.20;;;;;;5027571;28;20508;-59
2022/08/09 00:37:19;;;;;;;0.40;0.40;;;19.30;93.30;;;;;;5012804;28;20432;-59
2022/08/09 00:39:46;;;;;;;0.60;0.60;;;19.20;93.30;;;;;;5027167;28;20518;-59
2022/08/09 00:42:33;;;;;;;0.50;0.50;;;19.20;93.30;;;;;;5029020;28;20914;-59
2022/08/09 00:45:20;;;;;;;0.87;0.57;;;19.20;93.40;;;;;;5012649;28;20445;-60
2022/08/09 00:47:47;;;;;;;0.63;0.63;;;19.20;93.40;;;;;;5013182;28;20436;-59
2022/08/09 00:50:13;;;;;;;0.47;0.47;;;19.10;93.50;;;;;;5062963;28;20869;-59
2022/08/09 00:52:41;;;;;;;0.63;0.50;;;19.10;93.90;;;;;;5030570;28;20439;-59
2022/08/09 00:55:08;;;;;;;0.50;0.50;;;19.00;93.70;;;;;;5032094;28;20522;-58
2022/08/09 00:57:58;;;;;;;0.47;0.47;;;19.00;93.70;;;;;;5025042;28;20414;-59
2022/08/09 01:00:29;;;;;;;0.65;0.65;;;18.90;93.80;;;;;;5028293;28;20438;-60
2022/08/09 01:03:09;;;;;;;0.45;0.45;;;18.90;93.70;;;;;;5031259;28;20536;-59
2022/08/09 01:05:56;;;;;;;0.50;0.50;;;18.90;93.90;;;;;;5012387;28;20498;-59
2022/08/09 01:08:59;;;;;;;0.60;0.60;;;18.90;93.80;;;;;;5012887;28;20430;-59
2022/08/09 01:11:39;;;;;;;0.50;0.50;;;18.90;93.80;;;;;;5027345;28;20426;-58
2022/08/09 01:14:48;;;;;;;0.55;0.55;;;18.90;93.80;;;;;;5019622;28;20463;-59
2022/08/09 01:17:45;;;;;;;0.60;0.60;;;18.80;93.90;;;;;;5012435;28;20468;-59
2022/08/09 01:20:16;;;;;;;0.80;0.50;;;18.80;93.90;;;;;;5026284;28;20785;-59
2022/08/09 01:23:02;;;;;;;0.50;0.50;;;18.80;93.90;;;;;;5031645;28;20443;-59
2022/08/09 01:25:48;;;;;;;0.52;0.52;;;18.70;94.00;;;;;;5014284;28;20433;-59
2022/08/09 01:28:21;;;;;;;0.50;0.50;;;18.80;94.10;;;;;;5012028;28;20464;-59
2022/08/09 01:30:50;;;;;;;0.40;0.40;;;18.70;94.10;;;;;;5012095;28;20432;-59
2022/08/09 01:33:26;;;;;;;0.57;0.57;;;18.70;94.00;;;;;;5011786;28;20448;-59
2022/08/09 01:36:05;;;;;;;0.70;0.60;;;18.70;94.10;;;;;;5029411;28;20502;-59
2022/08/09 01:38:39;;;;;;;0.50;0.50;;;18.70;94.00;;;;;;5027796;28;20435;-59
2022/08/09 01:41:19;;;;;;;1.05;0.50;;;18.80;94.00;;;;;;5029727;28;21028;-59
2022/08/09 01:43:55;;;;;;;0.55;0.55;;;18.80;94.00;;;;;;5028715;28;20439;-60
2022/08/09 01:46:35;;;;;;;0.50;0.50;;;18.70;94.00;;;;;;5031225;28;20435;-59
2022/08/09 01:49:10;;;;;;;0.50;0.50;;;18.70;94.00;;;;;;5027582;28;20428;-59
2022/08/09 01:51:53;;;;;;;0.33;0.33;;;18.60;94.00;;;;;;5031427;28;20434;-59
2022/08/09 01:54:32;;;;;;;1.50;0.60;;;18.60;94.10;;;;;;5026646;28;20519;-59
2022/08/09 01:57:10;;;;;;;0.70;0.60;;;18.50;94.20;;;;;;5010693;28;20443;-59
2022/08/09 01:59:43;;;;;;;1.00;0.50;;;18.50;94.20;;;;;;5011652;28;20436;-60
2022/08/09 02:02:23;;;;;;;0.57;0.57;;;18.50;94.30;;;;;;5010728;28;20428;-60
2022/08/09 02:05:01;;;;;;;0.80;0.47;;;18.50;94.30;;;;;;5031361;28;20427;-60
2022/08/09 02:07:47;;;;;;;0.60;0.60;;;18.50;94.30;;;;;;5031123;28;20458;-60
2022/08/09 02:10:38;;;;;;;0.40;0.40;;;18.50;94.30;;;;;;5011453;28;20451;-60
2022/08/09 02:13:07;;;;;;;0.63;0.63;;;18.40;94.80;;;;;;5010486;28;20945;-60
2022/08/09 02:15:38;;;;;;;0.50;0.50;;;18.40;94.50;;;;;;5017979;28;20860;-60
2022/08/09 02:18:26;;;;;;;0.40;0.40;;;18.40;94.50;;;;;;5011328;28;20499;-59
2022/08/09 02:21:10;;;;;;;0.55;0.55;;;18.40;94.50;;;;;;5020220;28;20448;-60
2022/08/09 02:23:53;;;;;;;0.57;0.57;;;18.40;94.60;;;;;;5010233;28;20440;-59
2022/08/09 02:26:24;;;;;;;0.50;0.50;;;18.30;94.70;;;;;;5011211;28;20543;-59
2022/08/09 02:28:57;;;;;;;0.60;0.60;;;18.30;94.70;;;;;;5011019;28;20436;-59
2022/08/09 02:31:31;;;;;;;0.30;0.30;;;18.30;94.80;;;;;;5010373;28;20482;-59
2022/08/09 02:34:12;;;;;;;0.65;0.65;;;18.30;94.80;;;;;;5010372;28;20428;-60
2022/08/09 02:37:02;;;;;;;0.73;0.50;;;18.30;94.90;;;;;;5013858;28;20449;-60
2022/08/09 02:39:34;;;;;;;0.60;0.60;;;18.20;94.90;;;;;;5029582;28;20518;-59
2022/08/09 02:42:20;;;;;;;0.57;0.57;;;18.20;95.10;;;;;;5030673;28;20439;-60
2022/08/09 02:44:57;;;;;;;0.40;0.40;;;18.20;95.00;;;;;;5030112;28;20423;-60
2022/08/09 02:47:26;;;;;;;0.50;0.50;;;18.20;95.10;;;;;;5030308;28;20435;-60
2022/08/09 02:50:12;;;;;;;0.50;0.50;;;18.10;95.10;;;;;;5027518;28;20481;-60
2022/08/09 02:53:10;;;;;;;0.40;0.40;;;18.10;95.10;;;;;;5060654;28;20873;-60
2022/08/09 02:55:56;;;;;;;0.50;0.50;;;18.10;95.30;;;;;;5032856;28;20442;-59
2022/08/09 02:58:28;;;;;;;1.17;0.63;;;18.00;95.30;;;;;;5038138;28;20431;-59
2022/08/09 03:01:05;;;;;;;0.50;0.50;;;17.90;95.40;;;;;;5028700;28;21159;-60
2022/08/09 03:03:40;;;;;;;0.40;0.40;;;17.90;95.50;;;;;;5029571;28;21003;-59
2022/08/09 03:06:29;;;;;;;0.60;0.60;;;17.90;95.60;;;;;;5025418;28;20434;-61
2022/08/09 03:08:57;;;;;;;0.50;0.50;;;17.90;95.70;;;;;;5010248;28;20864;-59
2022/08/09 03:11:27;;;;;;;0.43;0.43;;;17.90;95.70;;;;;;5011496;28;20440;-59
2022/08/09 03:14:16;;;;;;;0.50;0.50;;;17.80;95.70;;;;;;5008401;28;20784;-59
2022/08/09 03:16:44;;;;;;;0.93;0.67;;;17.80;95.80;;;;;;5027761;28;20523;-59
2022/08/09 03:19:19;;;;;;;0.32;0.32;;;17.70;95.90;;;;;;5036340;28;20528;-59
2022/08/09 03:22:07;;;;;;;0.50;0.50;;;17.70;96.00;;;;;;5010055;28;20436;-60
2022/08/09 03:24:45;;;;;;;0.50;0.50;;;17.60;96.20;;;;;;5010029;28;20947;-60
2022/08/09 03:27:33;;;;;;;0.57;0.57;;;17.50;96.40;;;;;;5009645;28;20429;-60
2022/08/09 03:30:12;;;;;;;0.55;0.55;;;17.40;96.50;;;;;;5013826;28;20441;-60
2022/08/09 03:32:57;;;;;;;0.50;0.50;;;17.40;96.60;;;;;;5009574;28;20436;-60
2022/08/09 03:35:31;;;;;;;0.60;0.60;;;17.40;96.70;;;;;;5021273;28;20458;-60
2022/08/09 03:38:18;;;;;;;0.60;0.60;;;17.40;96.70;;;;;;5026856;28;20427;-59
2022/08/09 03:40:56;;;;;;;0.75;0.75;;;17.30;96.80;;;;;;5028331;28;20505;-60
2022/08/09 03:43:24;;;;;;;0.50;0.50;;;17.20;96.90;;;;;;5011368;28;20428;-59
2022/08/09 03:46:01;;;;;;;0.90;0.73;;;17.20;97.10;;;;;;5009862;28;20528;-59
2022/08/09 03:48:54;;;;;;;0.50;0.50;;;17.20;97.20;;;;;;5009925;28;20785;-59
2022/08/09 03:51:21;;;;;;;0.60;0.60;;;17.20;97.20;;;;;;5013748;28;20486;-60
2022/08/09 03:54:09;;;;;;;0.40;0.40;;;17.20;97.30;;;;;;5009317;28;20432;-59
2022/08/09 03:56:39;;;;;;;0.70;0.70;;;17.20;97.20;;;;;;5027324;28;20525;-60
2022/08/09 03:59:11;;;;;;;0.60;0.60;;;17.30;97.40;;;;;;5026518;28;20434;-60
2022/08/09 04:01:43;;;;;;;0.50;0.50;;;17.30;97.30;;;;;;5020219;28;20961;-60
2022/08/09 04:04:15;;;;;;;0.50;0.50;;;17.30;97.40;;;;;;5015120;28;20431;-59
2022/08/09 04:06:41;;;;;;;0.40;0.40;;;17.30;97.40;;;;;;5024418;28;20436;-60
2022/08/09 04:09:15;;;;;;;0.40;0.40;;;17.30;97.50;;;;;;5009546;28;20490;-59
2022/08/09 04:12:40;;;;;;;0.52;0.52;;;17.20;97.50;;;;;;5028683;28;20532;-59
2022/08/09 04:15:14;;;;;;;0.55;0.55;;;17.30;97.70;;;;;;5026830;28;20436;-59
2022/08/09 04:18:02;;;;;;;0.60;0.60;;;17.20;97.70;;;;;;5029175;28;20771;-59
2022/08/09 04:20:29;;;;;;;0.77;0.65;;;17.10;97.90;;;;;;5016393;28;20436;-59
2022/08/09 04:22:58;;;;;;;0.50;0.50;;;17.10;98.00;;;;;;5023447;28;20430;-59
2022/08/09 04:25:25;;;;;;;0.40;0.40;;;17.10;98.10;;;;;;5029177;28;20431;-60
2022/08/09 04:27:54;;;;;;;0.60;0.60;;;17.00;98.10;;;;;;5029163;28;20960;-59
2022/08/09 04:30:28;;;;;;;0.60;0.60;;;17.00;98.20;;;;;;5025461;28;20441;-60
2022/08/09 04:32:55;;;;;;;0.45;0.45;;;17.00;98.30;;;;;;5028687;28;20464;-59
2022/08/09 04:35:22;;;;;;;0.73;0.73;;;17.10;98.40;;;;;;5028907;28;20484;-59
2022/08/09 04:37:49;;;;;;;0.80;0.80;;;17.10;98.40;;;;;;5010771;28;20516;-62
2022/08/09 04:40:19;;;;;;;0.50;0.50;;;17.10;98.40;;;;;;5013902;28;20543;-59
2022/08/09 04:43:02;;;;;;;0.60;0.60;;;17.10;98.50;;;;;;5019762;28;20925;-59
2022/08/09 04:45:31;;;;;;;0.70;0.50;;;17.20;98.70;;;;;;5030170;28;20430;-60
2022/08/09 04:48:09;;;;;;;0.50;0.50;;;17.20;98.60;;;;;;5017823;28;20947;-60
2022/08/09 04:50:36;;;;;;;0.57;0.57;;;17.20;98.60;;;;;;5045907;28;20438;-59
2022/08/09 04:53:06;;;;;;;0.60;0.60;;;17.20;98.80;;;;;;5013411;28;20974;-60
2022/08/09 04:55:42;;;;;;;0.70;0.63;;;17.20;98.70;;;;;;5014445;28;20429;-60
2022/08/09 04:58:28;;;;;;;0.63;0.63;;;17.20;98.70;;;;;;5029650;28;20435;-60
2022/08/09 05:01:00;;;;;;;0.43;0.43;;;17.30;98.70;;;;;;5015583;28;20423;-60
2022/08/09 05:03:28;;;;;;;0.60;0.60;;;17.40;98.80;;;;;;5011066;28;20424;-60
2022/08/09 05:06:11;;;;;;;0.60;0.60;;;17.40;99.10;;;;;;5016440;28;20423;-60
2022/08/09 05:08:53;;;;;;;0.60;0.60;;;17.50;98.90;;;;;;5031457;28;20485;-59
2022/08/09 05:11:27;;;;;;;0.40;0.40;;;17.60;98.90;;;;;;5029275;28;20481;-60
2022/08/09 05:14:01;;;;;;;0.75;0.50;;;17.70;98.70;;;;;;5031608;28;20423;-59
2022/08/09 05:16:33;;;;;;;0.60;0.60;;;17.80;98.80;;;;;;5032265;28;20426;-59
2022/08/09 05:19:20;;;;;;;0.60;0.50;;;17.80;98.60;;;;;;5023411;28;20935;-59
2022/08/09 05:21:52;;;;;;;0.40;0.40;;;17.90;98.50;;;;;;5014665;28;20794;-60
2022/08/09 05:24:25;;;;;;;0.90;0.50;;;18.00;98.60;;;;;;5010739;28;20942;-59
2022/08/09 05:26:52;;;;;;;0.50;0.50;;;18.10;98.40;;;;;;5020701;28;21000;-59
2022/08/09 05:29:20;;;;;;;0.60;0.60;;;18.30;98.50;;;;;;5031819;28;20458;-60
2022/08/09 05:31:59;;;;;;;0.50;0.50;;;18.50;98.40;;;;;;5024534;28;20974;-59
2022/08/09 05:34:32;;;;;;;0.57;0.57;;;19.20;97.50;;;;;;5013744;28;20530;-60
2022/08/09 05:37:04;;;;;;;0.60;0.60;;;20.00;97.10;;;;;;5020794;28;20530;-60
2022/08/09 05:39:39;;;;;;;0.70;0.50;;;20.80;96.40;;;;;;5012231;28;20487;-60
2022/08/09 05:42:14;;;;;;;0.60;0.60;;;21.50;95.70;;;;;;5019911;28;20430;-60
2022/08/09 05:44:56;;;;;;;0.50;0.50;;;22.00;95.00;;;;;;5031072;28;20454;-60
2022/08/09 05:47:26;;;;;;;0.50;0.50;;;21.90;94.60;;;;;;5025429;28;20895;-62
2022/08/09 05:49:59;;;;;;;0.70;0.40;;;22.10;94.30;;;;;;5011544;28;20428;-60
2022/08/09 05:52:45;;;;;;;0.50;0.50;;;22.30;94.40;;;;;;5010721;28;20427;-59
2022/08/09 05:55:20;;;;;;;0.50;0.50;;;22.80;93.80;;;;;;5011488;28;20506;-59
2022/08/09 05:57:51;;;;;;;0.50;0.50;;;23.60;93.50;;;;;;5011451;28;20591;-59
2022/08/09 06:00:27;;;;;;;0.50;0.50;;;23.90;92.80;;;;;;5011644;28;21066;-59
2022/08/09 06:02:57;;;;;;;0.50;0.50;;;24.20;92.20;;;;;;5013482;28;20483;-59
2022/08/09 06:05:26;;;;;;;0.60;0.60;;;24.20;92.30;;;;;;5018372;28;20469;-59
2022/08/09 06:08:13;;;;;;;0.55;0.55;;;24.20;92.00;;;;;;5028959;28;20423;-58
2022/08/09 06:10:49;;;;;;;0.32;0.32;;;24.60;91.80;;;;;;5017356;28;20432;-58
2022/08/09 06:13:17;;;;;;;0.50;0.50;;;24.30;91.50;;;;;;5058441;28;20439;-58
2022/08/09 06:15:47;;;;;;;0.40;0.40;;;24.60;91.80;;;;;;5025036;28;20464;-59
2022/08/09 06:18:21;;;;;;;0.60;0.60;;;24.40;91.30;;;;;;5057046;28;20518;-59
2022/08/09 06:20:55;;;;;;;0.43;0.43;;;24.60;91.30;;;;;;5022953;28;20429;-59
2022/08/09 06:23:26;;;;;;;0.53;0.53;;;24.90;91.10;;;;;;5013539;28;20432;-59
2022/08/09 06:26:16;;;;;;;0.50;0.50;;;25.20;90.90;;;;;;5011218;28;20424;-59
2022/08/09 06:28:53;;;;;;;0.50;0.50;;;25.10;91.00;;;;;;5025012;28;20441;-59
2022/08/09 06:31:28;;;;;;;0.70;0.70;;;25.40;90.70;;;;;;5044817;28;21163;-59
2022/08/09 06:34:05;;;;;;;0.43;0.43;;;25.70;90.40;;;;;;5029984;28;20917;-59
2022/08/09 06:36:33;;;;;;;0.65;0.65;;;25.70;90.20;;;;;;5030392;28;20489;-59
2022/08/09 06:39:00;;;;;;;0.40;0.40;;;25.90;90.30;;;;;;5012645;28;20523;-59
2022/08/09 06:41:35;;;;;;;0.40;0.40;;;26.00;90.00;;;;;;5011631;28;20899;-59
2022/08/09 06:44:22;;;;;;;0.50;0.50;;;26.40;89.40;;;;;;5010695;28;20444;-59
2022/08/09 06:46:50;;;;;;;0.57;0.57;;;26.70;88.80;;;;;;5010791;28;20844;-59
2022/08/09 06:49:21;;;;;;;0.50;0.50;;;26.40;87.90;;;;;;5012498;28;20769;-59
2022/08/09 06:52:09;;;;;;;0.50;0.50;;;26.20;88.70;;;;;;5012529;28;20432;-59
2022/08/09 06:54:37;;;;;;;0.52;0.52;;;26.20;88.70;;;;;;5029839;28;20431;-60
2022/08/09 06:57:07;;;;;;;0.57;0.57;;;26.50;88.80;;;;;;5026219;28;20484;-59
2022/08/09 06:59:34;;;;;;;0.60;0.60;;;26.80;88.30;;;;;;5028617;28;20466;-59
2022/08/09 07:02:20;;;;;;;0.32;0.32;;;27.20;87.60;;;;;;5026600;28;20427;-59
2022/08/09 07:04:55;;;;;;;0.50;0.50;;;27.20;87.30;;;;;;5009566;28;20436;-59
2022/08/09 07:07:22;;;;;;;0.40;0.40;;;27.00;85.90;;;;;;5011910;28;20492;-59
2022/08/09 07:10:11;;;;;;;0.40;0.40;;;27.10;85.70;;;;;;5029641;28;20481;-59
2022/08/09 07:12:57;;;;;;;0.40;0.40;;;26.90;86.20;;;;;;5016469;28;20436;-60
2022/08/09 07:15:25;;;;;;;0.47;0.47;;;26.80;85.90;;;;;;5010037;28;20628;-59
2022/08/09 07:18:13;;;;;;;0.55;0.55;;;26.50;86.50;;;;;;5010302;28;20534;-59
2022/08/09 07:20:41;;;;;;;0.40;0.40;;;26.80;86.90;;;;;;5010039;28;20507;-59
2022/08/09 07:23:10;;;;;;;0.60;0.60;;;27.20;86.60;;;;;;5024458;28;20432;-59
2022/08/09 07:25:46;;;;;;;0.60;0.60;;;27.70;85.40;;;;;;5009022;28;20433;-60
2022/08/09 07:28:18;;;;;;;0.52;0.52;;;27.90;85.40;;;;;;5029050;28;20437;-61
2022/08/09 07:30:54;;;;;;;0.43;0.43;;;27.70;85.60;;;;;;5040695;28;20483;-60
2022/08/09 07:33:21;;;;;;;0.60;0.60;;;27.90;85.30;;;;;;5011847;28;20494;-61
2022/08/09 07:35:51;;;;;;;0.45;0.45;;;28.10;84.60;;;;;;5010320;28;20494;-60
2022/08/09 07:38:20;;;;;;;0.57;0.57;;;27.90;84.50;;;;;;5010383;28;20432;-60
2022/08/09 07:40:53;;;;;;;0.50;0.50;;;28.10;84.70;;;;;;5009717;28;20435;-59
2022/08/09 07:43:38;;;;;;;0.50;0.50;;;27.80;84.70;;;;;;5017351;28;20832;-59
2022/08/09 07:46:16;;;;;;;0.40;0.40;;;28.00;84.60;;;;;;5029386;28;20449;-59
2022/08/09 07:48:48;;;;;;;0.40;0.40;;;27.70;85.20;;;;;;5015515;28;20434;-60
2022/08/09 07:51:25;;;;;;;0.70;0.70;;;28.20;84.40;;;;;;5036935;28;20433;-61
2022/08/09 07:54:12;;;;;;;0.60;0.60;;;28.60;83.80;;;;;;5009695;28;20420;-60
2022/08/09 07:56:43;;;;;;;0.50;0.50;;;28.20;82.90;;;;;;5026145;28;20471;-59
2022/08/09 07:59:19;;;;;;;0.40;0.40;;;27.60;84.00;;;;;;5008362;28;20432;-60
2022/08/09 08:02:06;;;;;;;0.40;0.40;;;27.10;84.70;;;;;;5009859;28;20923;-60
2022/08/09 08:04:35;;;;;;;0.45;0.45;;;26.90;86.00;;;;;;5009170;28;20439;-60
2022/08/09 08:07:04;;;;;;;0.50;0.50;;;27.50;85.40;;;;;;5009974;28;20434;-60
2022/08/09 08:09:53;;;;;;;0.47;0.47;;;28.20;84.90;;;;;;5009760;28;21243;-60
2022/08/09 08:12:41;;;;;;;0.50;0.50;;;28.40;83.60;;;;;;5017583;28;20445;-61
2022/08/09 08:15:16;;;;;;;0.40;0.40;;;28.80;83.70;;;;;;5031756;28;20442;-61
2022/08/09 08:17:52;;;;;;;0.40;0.40;;;28.80;84.70;;;;;;5031312;28;20431;-60
2022/08/09 08:20:25;;;;;;;0.40;0.40;;;28.90;83.30;;;;;;5033346;28;20430;-61
2022/08/09 08:22:58;;;;;;;0.55;0.55;;;28.10;84.10;;;;;;5023582;28;20491;-61
2022/08/09 08:25:42;;;;;;;0.60;0.60;;;28.60;85.40;;;;;;5013326;28;20463;-60
2022/08/09 08:28:12;;;;;;;1.90;0.40;;;29.00;83.20;;;;;;5025152;28;20494;-60
2022/08/09 08:30:43;;;;;;;0.43;0.43;;;29.20;82.70;;;;;;5013464;28;20896;-60
2022/08/09 08:33:13;;;;;;;0.70;0.70;;;28.90;83.20;;;;;;5016762;28;20441;-62
2022/08/09 08:35:51;;;;;;;0.30;0.30;;;29.20;84.10;;;;;;5011963;28;20713;-60
2022/08/09 08:38:25;;;;;;;0.60;0.60;;;29.50;82.80;;;;;;5022492;28;20430;-61
2022/08/09 08:40:55;;;;;;;0.50;0.50;;;29.20;83.10;;;;;;5023657;28;20424;-60
2022/08/09 08:43:26;;;;;;;0.40;0.40;;;29.60;83.50;;;;;;5012768;28;20439;-60
2022/08/09 08:45:59;;;;;;;0.50;0.50;;;29.90;81.90;;;;;;5013101;28;20428;-60
2022/08/09 08:48:47;;;;;;;0.40;0.40;;;29.60;81.60;;;;;;5023926;28;20454;-60
2022/08/09 08:51:23;;;;;;;0.45;0.45;;;29.30;82.60;;;;;;5032551;28;20560;-60
2022/08/09 08:53:51;;;;;;;0.57;0.57;;;28.90;82.70;;;;;;5031988;28;20435;-60
2022/08/09 08:56:40;;;;;;;0.50;0.50;;;28.40;83.10;;;;;;5022192;28;20605;-59
2022/08/09 08:59:09;;;;;;;0.50;0.50;;;28.90;83.70;;;;;;5014437;28;20540;-60
2022/08/09 09:01:48;;;;;;;0.50;0.50;;;29.30;83.70;;;;;;5024571;28;20847;-60
2022/08/09 09:04:28;;;;;;;0.38;0.38;;;29.60;82.80;;;;;;5031602;28;20431;-60
2022/08/09 09:07:06;;;;;;;0.50;0.50;;;29.50;82.50;;;;;;5012126;28;20954;-60
2022/08/09 09:09:36;;;;;;;0.40;0.40;;;29.20;81.90;;;;;;5026506;28;20439;-60
2022/08/09 09:12:26;;;;;;;0.50;0.50;;;29.40;81.90;;;;;;5031993;28;20434;-61
2022/08/09 09:14:59;;;;;;;0.50;0.50;;;29.50;81.90;;;;;;5017103;28;20929;-61
2022/08/09 09:17:26;;;;;;;0.57;0.57;;;29.80;82.10;;;;;;5011637;28;20486;-60
2022/08/09 09:20:14;;;;;;;0.40;0.40;;;30.30;81.60;;;;;;5028696;28;20447;-61
2022/08/09 09:23:00;;;;;;;0.60;0.60;;;30.40;81.40;;;;;;5032222;28;20431;-60
2022/08/09 09:25:35;;;;;;;0.40;0.40;;;30.50;80.80;;;;;;5011850;28;20433;-61
2022/08/09 09:28:22;;;;;;;0.50;0.50;;;30.80;80.80;;;;;;5016031;28;20789;-59
2022/08/09 09:31:12;;;;;;;0.60;0.60;;;31.00;80.10;;;;;;5022532;28;20780;-59
2022/08/09 09:34:13;;;;;;;0.50;0.50;;;30.70;80.90;;;;;;5016981;28;20529;-58
2022/08/09 09:36:45;;;;;;;0.50;0.50;;;29.80;80.60;;;;;;5016663;28;20538;-59
2022/08/09 09:39:21;;;;;;;0.60;0.40;;;29.80;81.60;;;;;;5031618;28;20442;-59
2022/08/09 09:41:50;;;;;;;0.40;0.40;;;29.70;81.70;;;;;;5030840;28;20502;-59
2022/08/09 09:44:29;;;;;;;0.40;0.40;;;30.30;80.60;;;;;;5031096;28;20434;-59
2022/08/09 09:47:06;;;;;;;0.50;0.50;;;30.90;79.40;;;;;;5031405;28;20940;-60
2022/08/09 09:49:36;;;;;;;0.55;0.55;;;30.80;79.00;;;;;;5031623;28;20762;-60
2022/08/09 09:52:25;;;;;;;0.70;0.50;;;30.00;78.20;;;;;;5022101;28;20432;-59
2022/08/09 09:55:08;;;;;;;0.40;0.40;;;29.60;79.10;;;;;;5011459;28;20435;-59
2022/08/09 09:58:04;;;;;;;0.40;0.40;;;29.60;79.90;;;;;;5011979;28;20522;-59
2022/08/09 10:00:54;;;;;;;0.50;0.50;;;29.60;80.90;;;;;;5014716;28;20427;-59
2022/08/09 10:03:40;;;;;;;0.40;0.40;;;30.00;79.90;;;;;;5030768;28;20429;-60
2022/08/09 10:06:08;;;;;;;0.43;0.43;;;29.90;79.00;;;;;;5028057;28;20537;-59
2022/08/09 10:08:41;;;;;;;0.40;0.40;;;30.40;79.10;;;;;;5011149;28;20767;-60
2022/08/09 10:11:24;;;;;;;0.30;0.30;;;30.60;77.30;;;;;;5010178;28;20432;-59
2022/08/09 10:14:21;;;;;;;0.50;0.50;;;30.50;76.70;;;;;;5010695;28;20848;-60
2022/08/09 10:17:09;;;;;;;0.38;0.38;;;30.50;78.20;;;;;;5010450;28;20432;-59
2022/08/09 10:19:57;;;;;;;0.50;0.50;;;30.50;77.20;;;;;;5011068;28;20911;-60
2022/08/09 10:22:42;;;;;;;0.40;0.40;;;30.80;77.90;;;;;;5010717;28;20882;-60
2022/08/09 10:25:10;;;;;;;0.50;0.50;;;30.90;77.40;;;;;;5025012;28;20510;-59
2022/08/09 10:27:44;;;;;;;0.33;0.33;;;30.50;77.60;;;;;;5030681;28;20932;-59
2022/08/09 10:30:25;;;;;;;0.40;0.40;;;30.20;78.00;;;;;;5029006;28;20435;-60
2022/08/09 10:33:15;;;;;;;0.40;0.40;;;30.70;79.30;;;;;;5029835;28;20810;-59
2022/08/09 10:36:04;;;;;;;0.43;0.43;;;31.40;76.80;;;;;;5030105;28;20513;-59
2022/08/09 10:38:45;;;;;;;0.33;0.33;;;31.20;78.90;;;;;;5030201;28;20919;-60
2022/08/09 10:41:25;;;;;;;0.50;0.50;;;31.10;77.50;;;;;;5015417;28;20428;-61
2022/08/09 10:43:54;;;;;;;0.60;0.60;;;30.90;76.50;;;;;;5010153;28;20498;-60
2022/08/09 10:46:51;;;;;;;0.40;0.40;;;30.50;76.70;;;;;;5009366;28;20437;-59
2022/08/09 10:49:44;;;;;;;0.45;0.45;;;30.40;77.20;;;;;;5009990;28;20506;-60
2022/08/09 10:52:38;;;;;;;0.50;0.50;;;31.00;77.40;;;;;;5010686;28;20437;-60
2022/08/09 10:55:25;;;;;;;0.50;0.50;;;30.40;76.70;;;;;;5009915;28;20467;-59
2022/08/09 10:57:56;;;;;;;0.50;0.50;;;30.90;76.80;;;;;;5010262;28;20514;-60
2022/08/09 11:00:39;;;;;;;0.40;0.40;;;31.00;77.10;;;;;;5022525;28;20841;-59
2022/08/09 11:03:26;;;;;;;0.50;0.50;;;31.10;76.20;;;;;;5028397;28;20434;-60
2022/08/09 11:06:24;;;;;;;0.40;0.40;;;31.30;76.20;;;;;;5028606;28;20462;-60
2022/08/09 11:08:51;;;;;;;0.60;0.47;;;31.20;76.90;;;;;;5017121;28;20506;-60
2022/08/09 11:11:22;;;;;;;0.43;0.43;;;30.90;75.60;;;;;;5010295;28;20455;-61
2022/08/09 11:14:26;;;;;;;0.30;0.30;;;31.60;76.30;;;;;;5009804;28;20547;-60
2022/08/09 11:16:55;;;;;;;0.40;0.40;;;31.50;74.30;;;;;;5009785;28;21026;-61
2022/08/09 11:20:09;;;;;;;0.50;0.50;;;31.90;74.60;;;;;;5010321;28;20487;-61
2022/08/09 11:22:50;;;;;;;0.60;0.60;;;32.10;74.70;;;;;;5009226;28;20463;-61
2022/08/09 11:25:27;;;;;;;0.60;0.60;;;31.90;74.40;;;;;;5010031;28;20933;-61
2022/08/09 11:28:37;;;;;;;0.40;0.40;;;32.20;74.40;;;;;;5044083;28;21156;-60
2022/08/09 11:31:46;;;;;;;0.40;0.40;;;32.80;73.50;;;;;;5029965;28;20433;-61
2022/08/09 11:34:23;;;;;;;0.50;0.50;;;33.20;74.30;;;;;;5023927;28;20443;-61
2022/08/09 11:36:51;;;;;;;0.40;0.40;;;33.40;73.60;;;;;;5010119;28;20475;-61
2022/08/09 11:39:18;;;;;;;0.30;0.30;;;33.40;73.70;;;;;;5009724;28;20495;-60
2022/08/09 11:41:50;;;;;;;0.40;0.40;;;33.60;72.60;;;;;;5040489;28;20438;-61
2022/08/09 11:44:44;;;;;;;0.60;0.60;;;33.20;73.50;;;;;;5009395;28;20424;-60
2022/08/09 11:47:10;;;;;;;0.40;0.40;;;33.40;73.00;;;;;;5009799;28;20965;-61
2022/08/09 11:49:57;;;;;;;0.50;0.50;;;33.80;74.40;;;;;;5011756;28;20434;-61
2022/08/09 11:52:59;;;;;;;0.40;0.40;;;33.70;72.80;;;;;;5014056;28;20425;-61
2022/08/09 11:55:47;;;;;;;0.40;0.40;;;33.70;72.60;;;;;;5013364;28;20437;-61
2022/08/09 11:58:19;;;;;;;0.50;0.50;;;33.60;71.80;;;;;;5019864;28;20431;-61
2022/08/09 12:01:05;;;;;;;0.40;0.40;;;33.80;71.40;;;;;;5033453;28;20868;-60
2022/08/09 12:03:46;;;;;;;0.50;0.50;;;33.70;70.90;;;;;;5042121;28;20433;-60
2022/08/09 12:06:26;;;;;;;0.60;0.60;;;34.00;70.90;;;;;;5017871;28;20437;-60
2022/08/09 12:09:04;;;;;;;0.50;0.50;;;33.80;71.50;;;;;;5013623;28;20435;-61
2022/08/09 12:11:31;;;;;;;0.30;0.30;;;33.40;70.60;;;;;;5044587;28;20424;-61
2022/08/09 12:14:29;;;;;;;0.40;0.40;;;32.70;71.10;;;;;;5012724;28;20421;-60
2022/08/09 12:17:19;;;;;;;0.50;0.50;;;32.30;71.00;;;;;;5012726;28;20435;-61
2022/08/09 12:20:20;;;;;;;0.50;0.50;;;32.30;71.20;;;;;;5013111;28;20428;-61
2022/08/09 12:22:57;;;;;;;0.30;0.30;;;32.10;70.70;;;;;;5032968;28;20525;-60
2022/08/09 12:25:26;;;;;;;0.50;0.50;;;31.80;70.70;;;;;;5048547;28;20461;-61
2022/08/09 12:28:16;;;;;;;0.40;0.40;;;32.10;72.20;;;;;;5034189;28;20492;-60
2022/08/09 12:31:03;;;;;;;0.43;0.43;;;32.50;70.60;;;;;;5014929;28;20429;-61
2022/08/09 12:33:40;;;;;;;0.30;0.30;;;32.70;71.30;;;;;;5012331;28;20494;-61
2022/08/09 12:36:26;;;;;;;0.35;0.35;;;32.50;71.10;;;;;;5013389;28;20811;-61
2022/08/09 12:39:01;;;;;;;0.40;0.40;;;32.80;70.00;;;;;;5013131;28;20447;-61
2022/08/09 12:41:35;;;;;;;0.40;0.40;;;32.00;71.40;;;;;;5023300;28;20793;-61
2022/08/09 12:44:07;;;;;;;0.47;0.47;;;32.10;71.10;;;;;;5032127;28;20438;-61
2022/08/09 12:46:43;;;;;;;0.45;0.45;;;32.40;70.70;;;;;;5032827;28;20434;-60
2022/08/09 12:49:17;;;;;;;0.40;0.40;;;32.60;69.60;;;;;;5032702;28;20434;-58
2022/08/09 12:51:57;;;;;;;0.30;0.30;;;32.50;69.60;;;;;;5032932;28;20434;-60
2022/08/09 12:54:46;;;;;;;0.30;0.30;;;32.90;68.80;;;;;;5032009;28;20435;-60
2022/08/09 12:57:41;;;;;;;0.35;0.35;;;33.30;68.20;;;;;;5020638;28;20421;-60
2022/08/09 13:00:22;;;;;;;0.38;0.38;;;33.80;68.40;;;;;;5012250;28;20432;-61
2022/08/09 13:02:56;;;;;;;0.50;0.50;;;34.10;67.60;;;;;;5043438;28;20444;-61
2022/08/09 13:05:38;;;;;;;0.40;0.40;;;34.10;67.40;;;;;;5012723;28;20428;-60
2022/08/09 13:08:25;;;;;;;0.50;0.50;;;33.30;67.80;;;;;;5011977;28;20424;-60
2022/08/09 13:11:06;;;;;;;0.40;0.40;;;33.60;68.10;;;;;;5012461;28;20436;-60
2022/08/09 13:13:55;;;;;;;0.50;0.50;;;33.70;68.20;;;;;;5012659;28;20523;-60
2022/08/09 13:16:47;;;;;;;0.38;0.38;;;32.80;66.70;;;;;;5019458;28;20431;-60
2022/08/09 13:19:30;;;;;;;0.40;0.40;;;32.50;67.20;;;;;;5033287;28;20927;-60
2022/08/09 13:22:25;;;;;;;0.40;0.40;;;32.40;68.00;;;;;;5038783;28;20431;-60
2022/08/09 13:25:05;;;;;;;0.40;0.40;;;32.70;67.80;;;;;;5011753;28;20935;-60
2022/08/09 13:27:33;;;;;;;0.40;0.40;;;33.20;68.20;;;;;;5021333;28;20445;-59
2022/08/09 13:30:16;;;;;;;0.40;0.40;;;33.20;68.00;;;;;;5025691;28;20471;-60
2022/08/09 13:33:03;;;;;;;0.50;0.50;;;33.60;67.10;;;;;;5027765;28;20431;-60
2022/08/09 13:35:30;;;;;;;0.33;0.33;;;33.40;67.70;;;;;;5032050;28;20431;-60
2022/08/09 13:38:00;;;;;;;0.40;0.40;;;33.80;66.70;;;;;;5031915;28;20474;-60
2022/08/09 13:40:28;;;;;;;0.43;0.40;;;34.30;66.70;;;;;;5013229;28;20443;-60
2022/08/09 13:43:15;;;;;;;0.40;0.40;;;34.60;66.60;;;;;;5011608;28;20420;-60
2022/08/09 13:45:46;;;;;;;0.40;0.40;;;35.10;65.80;;;;;;5011866;28;20432;-59